Sunday, February 17, 2019, 3:06 PM EST
Back to Local

KHUL, Houlton Int'l Airport

Location: Houlton, ME, United States Lat: 46.117
Local Time: 3:06 PM EST (20:06 GMT) Lon: -67.8
Time Zone: US/Eastern Elev: 492 ft

Show me the last for .
Show Decoded

2019-02-17 04:53 METAR KHUL 170953Z AUTO 33003KT 10SM M12/M16 A2992 RMK AO2 SLP141 T11221161 $ =
2019-02-17 03:53 METAR KHUL 170853Z AUTO 32006KT 10SM CLR M12/M16 A2990 RMK AO2 SLP134 T11221156
                 $ =
2019-02-17 02:54 METAR KHUL 170754Z AUTO 27006KT M11/M16 A2988 RMK AO2 SLP128 T11111156 $ =
2019-02-17 01:53 METAR KHUL 170653Z AUTO 30007KT 10SM CLR M11/M14 A2986 RMK AO2 SLP119 T11061144
                 TSNO $ =
2019-02-17 00:53 METAR KHUL 170553Z AUTO 28009KT 10SM CLR M09/M14 A2984 RMK AO2 SLP114 T10941144
                 11039 21094 TSNO $ =
2019-02-16 23:53 METAR KHUL 170453Z AUTO 29012G19KT 10SM M08/M13 A2981 RMK AO2 SLPNO T10831133
                 400281083 TSNO $ =
2019-02-16 22:53 METAR KHUL 170353Z AUTO 31009G18KT 10SM OVC034 M07/M13 A2979 RMK AO2 SLP096
                 T10721128 $ =
2019-02-16 21:53 METAR KHUL 170253Z AUTO 29013G19KT 10SM M07/M12 A2979 RMK AO2 SLP094 T10671122 $
                 =
2019-02-16 20:53 METAR KHUL 170153Z AUTO 28008G17KT 10SM CLR M07/M11 A2976 RMK AO2 SLP085
                 T10671111 $ =
2019-02-16 19:53 METAR KHUL 170053Z AUTO 28012G17KT 10SM FEW027 FEW120 M06/M10 A2973 RMK AO2
                 SLP077 T10561100 $ =
2019-02-16 18:53 METAR KHUL 162353Z AUTO 30011G22KT 270V340 10SM FEW044 M04/M09 A2971 RMK AO2
                 SLP067 60000 T10391089 11006 21039 $ =
2019-02-16 17:53 METAR KHUL 162253Z AUTO 27008KT 10SM FEW027 M03/M07 A2968 RMK AO2 SLP057
                 T10281067 $ =
2019-02-16 16:53 METAR KHUL 162153Z AUTO 27007KT 10SM SCT031 BKN039 OVC050 M02/M07 A2964 RMK AO2
                 SLP043 T10171067 $ =
2019-02-16 15:53 METAR KHUL 162053Z AUTO 26009KT 10SM BKN048 M01/M06 A2962 RMK AO2 SNB13E25
                 SLP038 P0000 60000 T10111061 53010 $ =

Support USWX by starting your Amazon purchase here.